createdAt,value
2023-03-18T05:01:17.050Z,9.80
2023-03-18T05:03:48.814Z,9.80
2023-03-18T05:06:22.092Z,9.80
2023-03-18T05:08:53.843Z,9.80
2023-03-18T05:11:26.268Z,9.70
2023-03-18T05:13:57.997Z,9.70
2023-03-18T05:16:31.052Z,9.70
2023-03-18T05:19:02.754Z,9.70
2023-03-18T05:21:34.430Z,9.70
2023-03-18T05:24:06.755Z,9.60
2023-03-18T05:26:38.411Z,9.60
2023-03-18T05:29:10.145Z,9.60
2023-03-18T05:31:43.208Z,9.60
2023-03-18T05:34:14.901Z,9.60
2023-03-18T05:36:46.547Z,9.60
2023-03-18T05:39:18.243Z,9.60
2023-03-18T05:41:49.914Z,9.60
2023-03-18T05:44:21.583Z,9.60
2023-03-18T05:46:54.574Z,9.60
2023-03-18T05:49:26.310Z,9.60
2023-03-18T05:51:57.989Z,9.60
2023-03-18T05:54:29.713Z,9.60
2023-03-18T05:57:01.371Z,9.70
2023-03-18T05:59:33.039Z,9.70
2023-03-18T06:02:06.141Z,9.70
2023-03-18T06:04:37.865Z,9.70
2023-03-18T06:07:09.516Z,9.70
2023-03-18T06:09:41.176Z,9.80
2023-03-18T06:12:12.929Z,9.80
2023-03-18T06:14:44.591Z,10.00
2023-03-18T06:17:17.578Z,10.10
2023-03-18T06:19:49.360Z,10.30
2023-03-18T06:22:21.005Z,10.50
2023-03-18T06:24:52.756Z,10.60
2023-03-18T06:27:24.586Z,10.70
2023-03-18T06:29:56.382Z,10.90
2023-03-18T06:32:29.386Z,11.10
2023-03-18T06:35:01.054Z,11.40
2023-03-18T06:37:32.715Z,11.80
2023-03-18T06:40:05.493Z,12.60
2023-03-18T06:42:37.132Z,12.90
2023-03-18T06:45:09.519Z,13.70
2023-03-18T06:47:42.523Z,14.20
2023-03-18T06:52:46.254Z,15.40
2023-03-18T06:55:18.060Z,15.70
2023-03-18T07:00:22.231Z,16.60
2023-03-18T07:05:27.299Z,17.40
2023-03-18T07:07:58.936Z,17.80
2023-03-18T07:10:30.705Z,17.80
2023-03-18T07:13:02.458Z,17.70
2023-03-18T07:15:34.453Z,17.80
2023-03-18T07:18:07.689Z,18.00
2023-03-18T07:20:39.397Z,18.10
2023-03-18T07:23:11.042Z,18.10
2023-03-18T07:25:42.742Z,18.30
2023-03-18T07:28:14.377Z,18.40
2023-03-18T07:33:19.536Z,18.30
2023-03-18T07:35:51.248Z,18.30
2023-03-18T07:38:22.933Z,18.20
2023-03-18T07:40:54.600Z,17.90
2023-03-18T07:43:26.233Z,17.80
2023-03-18T07:45:57.888Z,18.10
2023-03-18T07:48:30.889Z,18.60
2023-03-18T07:51:02.560Z,18.90
2023-03-18T07:53:34.190Z,19.00
2023-03-18T07:56:06.796Z,18.80
2023-03-18T07:58:38.441Z,18.60
2023-03-18T08:01:10.074Z,18.40
2023-03-18T08:03:43.298Z,18.20
2023-03-18T08:06:15.271Z,17.80
2023-03-18T08:08:46.933Z,17.50
2023-03-18T08:11:18.575Z,17.10
2023-03-18T08:13:50.249Z,16.70
2023-03-18T08:16:22.068Z,16.30
2023-03-18T08:18:55.138Z,16.00
2023-03-18T08:21:26.782Z,15.70
2023-03-18T08:23:58.451Z,15.50
2023-03-18T08:26:30.171Z,15.40
2023-03-18T08:29:01.870Z,15.30
2023-03-18T08:31:33.581Z,15.20
2023-03-18T08:34:06.615Z,15.20
2023-03-18T08:36:38.261Z,15.10
2023-03-18T08:39:09.925Z,15.10
2023-03-18T08:41:42.402Z,15.10
2023-03-18T08:44:15.381Z,15.20
2023-03-18T08:46:47.030Z,15.20
2023-03-18T08:49:20.072Z,15.30
2023-03-18T08:51:51.767Z,15.30
2023-03-18T08:54:23.437Z,15.40
2023-03-18T08:56:55.103Z,15.50
2023-03-18T08:59:26.820Z,15.50
2023-03-18T09:01:58.480Z,15.50
2023-03-18T09:04:31.509Z,15.50
2023-03-18T09:07:03.180Z,15.60
2023-03-18T09:09:43.740Z,15.60
2023-03-18T09:12:16.089Z,15.60
2023-03-18T09:14:47.752Z,15.60
2023-03-18T09:17:19.401Z,15.60
2023-03-18T09:19:52.498Z,15.70
2023-03-18T09:22:24.172Z,15.80
2023-03-18T09:24:55.907Z,15.90
2023-03-18T09:27:27.582Z,16.00
2023-03-18T09:29:59.232Z,16.00
2023-03-18T09:32:30.985Z,16.10
2023-03-18T09:35:04.383Z,16.10
2023-03-18T09:37:36.069Z,16.10
2023-03-18T09:40:09.174Z,16.10
2023-03-18T09:42:46.800Z,16.00
2023-03-18T09:45:23.950Z,16.00
2023-03-18T09:48:05.992Z,16.00
2023-03-18T09:50:41.472Z,16.10
2023-03-18T09:53:16.891Z,16.10
2023-03-18T09:55:49.635Z,16.10
2023-03-18T09:58:23.756Z,16.10
2023-03-18T10:00:57.081Z,16.10
2023-03-18T10:03:32.709Z,16.00
2023-03-18T10:06:07.587Z,16.00
2023-03-18T10:08:43.510Z,16.00
2023-03-18T10:11:20.893Z,16.00
2023-03-18T10:13:57.230Z,16.00
2023-03-18T10:16:31.086Z,16.10
2023-03-18T10:19:02.792Z,16.10
2023-03-18T10:21:38.764Z,16.10
2023-03-18T10:24:19.956Z,16.20
2023-03-18T10:26:56.409Z,16.20
2023-03-18T10:29:40.866Z,16.40
2023-03-18T10:32:18.084Z,16.40
2023-03-18T10:34:57.148Z,16.50
2023-03-18T10:37:36.952Z,16.50
2023-03-18T10:40:13.612Z,16.50
2023-03-18T10:42:45.493Z,16.50
2023-03-18T10:45:21.351Z,16.50
2023-03-18T10:47:56.552Z,16.40
2023-03-18T10:50:32.790Z,16.40
2023-03-18T10:53:10.292Z,16.40
2023-03-18T10:55:46.885Z,16.40
2023-03-18T10:58:18.824Z,16.40
2023-03-18T11:00:50.520Z,16.40
2023-03-18T11:03:24.448Z,16.40
2023-03-18T11:05:57.076Z,16.40
2023-03-18T11:08:31.915Z,16.40
2023-03-18T11:11:31.067Z,16.40
2023-03-18T11:14:03.943Z,16.50
2023-03-18T11:16:38.611Z,16.40
2023-03-18T11:19:31.257Z,16.40
2023-03-18T11:22:05.435Z,16.40
2023-03-18T11:24:38.588Z,16.50
2023-03-18T11:27:26.710Z,16.60
2023-03-18T11:29:59.173Z,16.70
2023-03-18T11:32:31.863Z,16.80
2023-03-18T11:35:04.878Z,16.90
2023-03-18T11:37:37.585Z,17.10
2023-03-18T11:40:23.967Z,17.20
2023-03-18T11:42:57.008Z,17.20
2023-03-18T11:45:41.498Z,17.30
2023-03-18T11:48:18.582Z,17.30
2023-03-18T11:50:57.186Z,17.40
2023-03-18T11:53:33.512Z,17.50
2023-03-18T11:56:08.682Z,17.70
2023-03-18T11:58:59.339Z,17.90
2023-03-18T12:01:33.837Z,18.10
2023-03-18T12:04:22.627Z,18.30
2023-03-18T12:06:59.988Z,18.40
2023-03-18T12:09:34.192Z,18.50
2023-03-18T12:12:16.815Z,18.60
2023-03-18T12:14:52.330Z,18.70
2023-03-18T12:17:30.887Z,18.70
2023-03-18T12:20:09.461Z,18.70
2023-03-18T12:22:50.721Z,18.80
2023-03-18T12:25:50.203Z,18.70
2023-03-18T12:28:29.534Z,18.60
2023-03-18T12:31:11.412Z,18.70
2023-03-18T12:33:51.251Z,18.60
2023-03-18T12:36:36.486Z,18.50
2023-03-18T12:39:47.045Z,18.50
2023-03-18T12:42:20.043Z,18.70
2023-03-18T12:44:58.281Z,18.90
2023-03-18T12:47:32.715Z,19.10
2023-03-18T12:50:06.138Z,19.10
2023-03-18T12:52:39.993Z,19.10
2023-03-18T12:55:13.848Z,18.90
2023-03-18T12:57:46.346Z,18.80
2023-03-18T13:00:24.465Z,18.70
2023-03-18T13:03:00.892Z,18.60
2023-03-18T13:05:40.852Z,18.50
2023-03-18T13:08:30.727Z,18.40
2023-03-18T13:11:05.154Z,18.40
2023-03-18T13:13:37.067Z,18.30
2023-03-18T13:16:10.071Z,18.20
2023-03-18T13:18:43.242Z,18.00
2023-03-18T13:21:15.748Z,17.90
2023-03-18T13:24:16.046Z,17.80
2023-03-18T13:26:56.309Z,17.70
2023-03-18T13:29:31.616Z,17.60
2023-03-18T13:32:10.950Z,17.50
2023-03-18T13:35:03.329Z,17.60
2023-03-18T13:37:53.436Z,17.60
2023-03-18T13:40:33.894Z,17.60
2023-03-18T13:43:05.660Z,17.60
2023-03-18T13:45:38.342Z,17.50
2023-03-18T13:48:13.687Z,17.40
2023-03-18T13:50:46.074Z,17.30
2023-03-18T13:53:21.838Z,17.10
2023-03-18T13:56:04.157Z,17.00
2023-03-18T13:58:36.292Z,16.90
2023-03-18T14:01:12.786Z,16.70
2023-03-18T14:03:56.243Z,16.60
2023-03-18T14:06:46.735Z,16.60
2023-03-18T14:09:35.021Z,16.50
2023-03-18T14:12:38.289Z,16.40
2023-03-18T14:15:43.495Z,16.40
2023-03-18T14:18:19.764Z,16.30
2023-03-18T14:20:59.023Z,16.30
2023-03-18T14:23:35.404Z,16.20
2023-03-18T14:26:22.880Z,16.10
2023-03-18T14:28:55.942Z,16.00
2023-03-18T14:31:32.717Z,16.00
2023-03-18T14:34:23.252Z,16.00
2023-03-18T14:37:27.948Z,16.00
2023-03-18T14:40:01.617Z,16.10
2023-03-18T14:42:40.222Z,16.10
2023-03-18T14:45:15.455Z,16.20
2023-03-18T14:47:49.302Z,16.30
2023-03-18T14:50:34.359Z,16.50
2023-03-18T14:53:10.472Z,16.50
2023-03-18T14:55:42.155Z,16.60
2023-03-18T14:58:16.770Z,16.60
2023-03-18T15:00:49.592Z,16.70
2023-03-18T15:03:22.289Z,16.70
2023-03-18T15:05:55.741Z,16.70
2023-03-18T15:08:41.126Z,16.70
2023-03-18T15:11:18.875Z,16.80
2023-03-18T15:13:53.350Z,16.70
2023-03-18T15:16:25.100Z,16.80
2023-03-18T15:18:56.794Z,16.80
2023-03-18T15:21:29.047Z,16.80
2023-03-18T15:24:02.592Z,16.70
2023-03-18T15:26:35.154Z,16.70
2023-03-18T15:29:25.009Z,16.70
2023-03-18T15:32:10.084Z,16.60
2023-03-18T15:34:44.542Z,16.60
2023-03-18T15:37:37.592Z,16.60
2023-03-18T15:40:27.977Z,16.60
2023-03-18T15:43:04.806Z,16.60
2023-03-18T15:45:37.156Z,16.70
2023-03-18T15:48:18.848Z,16.70
2023-03-18T15:50:54.529Z,16.80
2023-03-18T15:53:26.996Z,16.80
2023-03-18T15:56:16.182Z,16.90
2023-03-18T15:58:56.489Z,17.00
2023-03-18T16:01:28.192Z,17.10
2023-03-18T16:03:59.872Z,17.10
2023-03-18T16:06:31.560Z,17.20
2023-03-18T16:09:14.514Z,17.20
2023-03-18T16:11:49.738Z,17.20
2023-03-18T16:14:22.703Z,17.10
2023-03-18T16:16:54.478Z,17.00
2023-03-18T16:19:26.794Z,16.80
2023-03-18T16:21:58.931Z,16.70
2023-03-18T16:24:30.626Z,16.60
2023-03-18T16:27:04.288Z,16.50
2023-03-18T16:29:36.811Z,16.40
2023-03-18T16:32:10.375Z,16.30
2023-03-18T16:34:42.616Z,16.20
2023-03-18T16:37:18.641Z,16.10
2023-03-18T16:39:50.371Z,16.00
2023-03-18T16:42:24.012Z,16.00
2023-03-18T16:44:55.827Z,15.90
2023-03-18T16:47:27.491Z,15.90
2023-03-18T16:49:59.176Z,15.80
2023-03-18T16:52:30.802Z,15.80
2023-03-18T16:55:02.574Z,15.70
2023-03-18T16:57:35.575Z,15.70
2023-03-18T17:00:14.842Z,15.60
2023-03-18T17:02:46.544Z,15.60
2023-03-18T17:05:18.460Z,15.50
2023-03-18T17:07:50.287Z,15.50
2023-03-18T17:10:23.038Z,15.40
2023-03-18T17:12:57.180Z,15.40
2023-03-18T17:15:29.742Z,15.30
2023-03-18T17:18:01.407Z,15.20
2023-03-18T17:20:33.082Z,15.10
2023-03-18T17:23:04.724Z,15.10
2023-03-18T17:25:36.424Z,14.90
2023-03-18T17:28:10.392Z,14.90
2023-03-18T17:30:42.082Z,14.80
2023-03-18T17:33:23.576Z,14.70
2023-03-18T17:35:55.472Z,14.60
2023-03-18T17:38:27.130Z,14.60
2023-03-18T17:40:59.078Z,14.60
2023-03-18T17:43:33.239Z,14.50
2023-03-18T17:46:05.326Z,14.50
2023-03-18T17:48:37.494Z,14.40
2023-03-18T17:51:11.917Z,14.40
2023-03-18T17:53:44.374Z,14.30
2023-03-18T17:56:17.293Z,14.20
2023-03-18T17:58:50.637Z,14.20
2023-03-18T18:01:23.919Z,14.10
2023-03-18T18:03:55.818Z,14.10
2023-03-18T18:06:28.212Z,14.00
2023-03-18T18:09:00.813Z,14.00
2023-03-18T18:11:33.930Z,13.90
2023-03-18T18:14:12.503Z,13.90
2023-03-18T18:16:44.195Z,13.90
2023-03-18T18:19:15.851Z,13.80
2023-03-18T18:21:47.687Z,13.80
2023-03-18T18:24:21.937Z,13.80
2023-03-18T18:26:53.615Z,13.70
2023-03-18T18:29:27.200Z,13.60
2023-03-18T18:31:58.852Z,13.60
2023-03-18T18:34:30.547Z,13.50
2023-03-18T18:37:02.204Z,13.40
2023-03-18T18:39:33.887Z,13.40
2023-03-18T18:42:05.858Z,13.30
2023-03-18T18:44:38.896Z,13.30
2023-03-18T18:47:17.160Z,13.30
2023-03-18T18:49:48.911Z,13.30
2023-03-18T18:52:20.566Z,13.30
2023-03-18T18:54:52.272Z,13.20
2023-03-18T18:57:24.796Z,13.20
2023-03-18T18:59:57.835Z,13.20
2023-03-18T19:02:30.514Z,13.20
2023-03-18T19:05:02.223Z,13.20
2023-03-18T19:07:33.936Z,13.20
2023-03-18T19:10:06.581Z,13.20
2023-03-18T19:12:38.242Z,13.20
2023-03-18T19:15:14.083Z,13.20
2023-03-18T19:17:46.959Z,13.30
2023-03-18T19:20:27.248Z,13.20
2023-03-18T19:22:58.907Z,13.20
2023-03-18T19:25:30.600Z,13.20
2023-03-18T19:28:02.369Z,13.20
2023-03-18T19:30:35.418Z,13.20
2023-03-18T19:33:13.133Z,13.20
2023-03-18T19:35:44.922Z,13.10
2023-03-18T19:38:18.786Z,13.10
2023-03-18T19:40:50.460Z,13.10
2023-03-18T19:43:22.112Z,13.10
2023-03-18T19:45:55.148Z,13.10
2023-03-18T19:48:26.856Z,13.00
2023-03-18T19:50:58.561Z,13.00
2023-03-18T19:53:30.568Z,13.00
2023-03-18T19:56:02.448Z,13.00
2023-03-18T19:58:34.122Z,12.90
2023-03-18T20:01:07.313Z,12.90
2023-03-18T20:03:38.994Z,12.90
2023-03-18T20:06:10.698Z,12.90
2023-03-18T20:08:42.577Z,12.90
2023-03-18T20:11:14.719Z,12.90
2023-03-18T20:13:46.412Z,12.90
2023-03-18T20:16:19.531Z,13.00
2023-03-18T20:18:51.285Z,13.00
2023-03-18T20:21:25.357Z,13.00
2023-03-18T20:23:57.251Z,12.90
2023-03-18T20:26:28.912Z,13.00
2023-03-18T20:29:00.591Z,13.00
2023-03-18T20:31:33.642Z,13.00
2023-03-18T20:34:05.311Z,13.00
2023-03-18T20:36:37.010Z,13.00
2023-03-18T20:39:15.184Z,13.00
2023-03-18T20:41:46.911Z,13.10
2023-03-18T20:44:18.566Z,13.10
2023-03-18T20:46:51.614Z,13.10
2023-03-18T20:49:23.321Z,13.10
2023-03-18T20:51:54.993Z,13.10
2023-03-18T20:54:28.926Z,13.10
2023-03-18T20:57:00.656Z,13.10
2023-03-18T20:59:32.330Z,13.10
2023-03-18T21:02:15.135Z,13.10
2023-03-18T21:04:46.782Z,13.10
2023-03-18T21:07:18.447Z,13.10
2023-03-18T21:09:50.136Z,13.20
2023-03-18T21:12:22.082Z,13.10
2023-03-18T21:14:53.740Z,13.20
2023-03-18T21:17:27.049Z,13.20
2023-03-18T21:20:11.088Z,13.20
2023-03-18T21:22:50.349Z,13.20
2023-03-18T21:25:22.827Z,13.20
2023-03-18T21:27:54.654Z,13.20
2023-03-18T21:30:26.316Z,13.30
2023-03-18T21:32:59.322Z,13.30
2023-03-18T21:35:31.030Z,13.30
2023-03-18T21:38:02.701Z,13.30
2023-03-18T21:40:34.413Z,13.30
2023-03-18T21:43:15.758Z,13.40
2023-03-18T21:45:47.432Z,13.40
2023-03-18T21:48:20.419Z,13.40
2023-03-18T21:50:52.158Z,13.40
2023-03-18T21:53:24.044Z,13.40
2023-03-18T21:55:55.796Z,13.40
2023-03-18T21:58:27.565Z,13.40
2023-03-18T22:00:59.508Z,13.40
2023-03-18T22:03:32.497Z,13.40
2023-03-18T22:06:04.453Z,13.40
2023-03-18T22:08:36.099Z,13.40
2023-03-18T22:11:13.110Z,13.40
2023-03-18T22:13:44.933Z,13.30
2023-03-18T22:16:17.352Z,13.30
2023-03-18T22:18:50.422Z,13.30
2023-03-18T22:21:23.973Z,13.40
2023-03-18T22:23:55.762Z,13.40
2023-03-18T22:26:27.691Z,13.30
2023-03-18T22:28:59.362Z,13.30
2023-03-18T22:31:31.151Z,13.30
2023-03-18T22:34:08.088Z,13.30
2023-03-18T22:36:39.850Z,13.30
2023-03-18T22:39:11.497Z,13.30
2023-03-18T22:41:43.169Z,13.30
2023-03-18T22:44:15.427Z,13.30
2023-03-18T22:46:47.173Z,13.30
2023-03-18T22:49:20.193Z,13.20
2023-03-18T22:51:51.862Z,13.20
2023-03-18T22:54:23.550Z,13.20
2023-03-18T22:56:56.891Z,13.20
2023-03-18T22:59:30.017Z,13.20
